Time;durP1;ratioP1;P1;durP2;ratioP2;P2;SDS_P1;SDS_P2;PMS_P1;PMS_P2;Temp;Humidity;BMP_temperature;BMP_pressure;BME280_temperature;BME280_humidity;BME280_pressure;Samples;Min_cycle;Max_cycle;Signal;HPM_P1;HPM_P2
2023/09/30 00:01:18;;;;;;;;;;;;;;;22.79;52.09;97681.75;4217990;28;5629;-61
2023/09/30 00:03:21;;;;;;;;;;;;;;;22.79;52.02;97676.38;4223614;28;5687;-61
2023/09/30 00:05:26;;;;;;;;;;;;;;;22.80;52.33;97672.59;4203029;28;5706;-60
2023/09/30 00:07:28;;;;;;;;;;;;;;;22.79;52.06;97671.78;4224113;28;5688;-61
2023/09/30 00:09:31;;;;;;;;;;;;;;;22.81;52.04;97676.94;4226095;28;5710;-61
2023/09/30 00:11:34;;;;;;;;;;;;;;;22.80;51.93;97678.81;4219162;28;5695;-61
2023/09/30 00:13:38;;;;;;;;;;;;;;;22.82;52.14;97678.56;4217257;28;5664;-61
2023/09/30 00:15:42;;;;;;;;;;;;;;;22.81;52.43;97675.03;4216805;28;5612;-61
2023/09/30 00:17:45;;;;;;;;;;;;;;;22.81;52.36;97679.63;4217355;28;5647;-61
2023/09/30 00:19:48;;;;;;;;;;;;;;;22.78;52.29;97672.84;4217117;28;5691;-61
2023/09/30 00:21:52;;;;;;;;;;;;;;;22.78;52.14;97667.47;4225692;28;5585;-61
2023/09/30 00:23:56;;;;;;;;;;;;;;;22.79;52.36;97654.81;4217602;28;5080;-61
2023/09/30 00:26:00;;;;;;;;;;;;;;;22.79;52.23;97662.88;4217181;28;5837;-61
2023/09/30 00:28:03;;;;;;;;;;;;;;;22.81;52.36;97663.44;4217239;28;5616;-61
2023/09/30 00:30:07;;;;;;;;;;;;;;;22.79;52.56;97658.31;4218375;28;5620;-61
2023/09/30 00:32:09;;;;;;;;;;;;;;;22.80;52.18;97656.44;4215710;28;5786;-61
2023/09/30 00:34:13;;;;;;;;;;;;;;;22.81;52.06;97660.75;4217312;28;5672;-61
2023/09/30 00:36:16;;;;;;;;;;;;;;;22.79;52.30;97660.19;4229943;28;5605;-61
2023/09/30 00:38:23;;;;;;;;;;;;;;;22.80;52.38;97669.91;4232131;28;6337;-62
2023/09/30 00:40:26;;;;;;;;;;;;;;;22.78;52.40;97666.66;4234236;28;5676;-61
2023/09/30 00:42:29;;;;;;;;;;;;;;;22.77;52.52;97668.53;4225872;28;5609;-61
2023/09/30 00:44:33;;;;;;;;;;;;;;;22.77;52.50;97662.34;4217311;28;5723;-61
2023/09/30 00:46:38;;;;;;;;;;;;;;;22.76;52.32;97660.66;4217471;28;5616;-62
2023/09/30 00:48:42;;;;;;;;;;;;;;;22.76;52.32;97666.06;4217075;28;5620;-60
2023/09/30 00:50:45;;;;;;;;;;;;;;;22.75;52.47;97669.81;4225554;28;5585;-61
2023/09/30 00:52:50;;;;;;;;;;;;;;;22.73;52.63;97670.06;4233407;28;5588;-61
2023/09/30 00:54:55;;;;;;;;;;;;;;;22.75;52.65;97669.81;4226239;28;5708;-60
2023/09/30 00:57:00;;;;;;;;;;;;;;;22.76;52.31;97671.44;4225519;28;5589;-60
2023/09/30 00:59:04;;;;;;;;;;;;;;;22.76;52.18;97676.84;4217121;28;5707;-60
2023/09/30 01:01:07;;;;;;;;;;;;;;;22.74;52.48;97674.41;4217343;28;5299;-61
2023/09/30 01:03:11;;;;;;;;;;;;;;;22.74;52.19;97668.19;4220820;28;5594;-61
2023/09/30 01:05:14;;;;;;;;;;;;;;;22.72;52.54;97673.03;4225589;28;5672;-61
2023/09/30 01:07:17;;;;;;;;;;;;;;;22.72;52.43;97681.94;4202637;28;5805;-61
2023/09/30 01:09:20;;;;;;;;;;;;;;;22.72;52.34;97675.72;4222138;28;5743;-61
2023/09/30 01:11:26;;;;;;;;;;;;;;;22.73;52.63;97678.16;4220335;28;5714;-61
2023/09/30 01:13:33;;;;;;;;;;;;;;;22.75;52.50;97675.22;4216059;28;5625;-61
2023/09/30 01:15:36;;;;;;;;;;;;;;;22.76;52.20;97676.84;4215819;28;5608;-61
2023/09/30 01:17:39;;;;;;;;;;;;;;;22.76;52.55;97676.84;4224693;28;6520;-61
2023/09/30 01:19:43;;;;;;;;;;;;;;;22.77;52.15;97676.63;4216867;28;5692;-61
2023/09/30 01:21:48;;;;;;;;;;;;;;;22.77;52.59;97673.09;4216806;28;5818;-61
2023/09/30 01:23:51;;;;;;;;;;;;;;;22.77;52.66;97673.09;4222700;28;5683;-61
2023/09/30 01:25:54;;;;;;;;;;;;;;;22.76;52.04;97672.25;4224978;28;5540;-61
2023/09/30 01:27:59;;;;;;;;;;;;;;;22.77;52.62;97673.09;4222357;28;5667;-62
2023/09/30 01:30:02;;;;;;;;;;;;;;;22.78;52.69;97659.38;4226354;28;5624;-61
2023/09/30 01:32:09;;;;;;;;;;;;;;;22.79;52.37;97665.59;4228785;28;5627;-61
2023/09/30 01:34:11;;;;;;;;;;;;;;;22.78;52.41;97667.47;4220082;28;5611;-61
2023/09/30 01:36:14;;;;;;;;;;;;;;;22.78;52.52;97663.97;4220523;28;5620;-61
2023/09/30 01:38:19;;;;;;;;;;;;;;;22.78;52.48;97658.56;4228173;28;5679;-61
2023/09/30 01:40:22;;;;;;;;;;;;;;;22.77;52.58;97656.94;4219685;28;5612;-62
2023/09/30 01:42:25;;;;;;;;;;;;;;;22.78;52.29;97662.06;4228765;28;5528;-61
2023/09/30 01:44:29;;;;;;;;;;;;;;;22.78;52.52;97656.69;4219288;28;5817;-62
2023/09/30 01:46:32;;;;;;;;;;;;;;;22.78;52.29;97659.38;4235846;28;5661;-62
2023/09/30 01:48:34;;;;;;;;;;;;;;;22.77;52.45;97659.63;4221168;28;5742;-61
2023/09/30 01:50:38;;;;;;;;;;;;;;;22.75;52.37;97659.84;4220521;28;5687;-61
2023/09/30 01:52:41;;;;;;;;;;;;;;;22.76;52.02;97661.47;4220274;28;5600;-61
2023/09/30 01:54:45;;;;;;;;;;;;;;;22.77;52.26;97651.53;4220409;28;5828;-61
2023/09/30 01:56:49;;;;;;;;;;;;;;;22.76;51.92;97642.63;4203772;28;5642;-61
2023/09/30 01:58:51;;;;;;;;;;;;;;;22.77;52.23;97643.47;4221085;28;5808;-61
2023/09/30 02:00:54;;;;;;;;;;;;;;;22.76;52.00;97645.31;4235653;28;5613;-61
2023/09/30 02:02:57;;;;;;;;;;;;;;;22.77;51.99;97659.63;4220306;28;5532;-61
2023/09/30 02:05:00;;;;;;;;;;;;;;;22.76;52.19;97648.00;4219986;28;5691;-61
2023/09/30 02:07:03;;;;;;;;;;;;;;;22.77;52.14;97657.75;4219859;28;5821;-61
2023/09/30 02:09:08;;;;;;;;;;;;;;;22.78;52.18;97658.56;4216037;28;5640;-61
2023/09/30 02:11:13;;;;;;;;;;;;;;;22.79;52.02;97660.19;4214616;28;5624;-61
2023/09/30 02:13:16;;;;;;;;;;;;;;;22.78;52.19;97658.56;4219611;28;5620;-61
2023/09/30 02:15:22;;;;;;;;;;;;;;;22.79;51.69;97665.59;4219796;28;5628;-60
2023/09/30 02:17:25;;;;;;;;;;;;;;;22.77;51.87;97657.75;4219532;28;6328;-61
2023/09/30 02:19:28;;;;;;;;;;;;;;;22.79;51.69;97662.88;4223015;28;5667;-61
2023/09/30 02:21:31;;;;;;;;;;;;;;;22.79;52.11;97660.19;4219169;28;6866;-61
2023/09/30 02:23:33;;;;;;;;;;;;;;;22.78;51.57;97658.56;4226444;28;5613;-61
2023/09/30 02:25:36;;;;;;;;;;;;;;;22.77;51.63;97656.94;4227345;28;5710;-60
2023/09/30 02:27:42;;;;;;;;;;;;;;;22.74;51.75;97652.03;4227418;28;5612;-60
2023/09/30 02:29:45;;;;;;;;;;;;;;;22.71;51.66;97649.84;4219127;28;5691;-60
2023/09/30 02:31:48;;;;;;;;;;;;;;;22.71;51.76;97647.16;4219279;28;5767;-61
2023/09/30 02:33:51;;;;;;;;;;;;;;;22.72;51.84;97648.78;4227353;28;5597;-61
2023/09/30 02:35:54;;;;;;;;;;;;;;;22.72;51.75;97644.19;4220576;28;5600;-61
2023/09/30 02:37:58;;;;;;;;;;;;;;;22.73;51.60;97636.91;4224035;28;5620;-61
2023/09/30 02:40:01;;;;;;;;;;;;;;;22.72;51.31;97635.28;4229735;28;5593;-61
2023/09/30 02:42:04;;;;;;;;;;;;;;;22.74;51.46;97643.94;4224465;28;5724;-61
2023/09/30 02:44:09;;;;;;;;;;;;;;;22.74;51.64;97638.53;4227142;28;5612;-61
2023/09/30 02:46:12;;;;;;;;;;;;;;;22.72;51.35;97638.81;4219117;28;5691;-60
2023/09/30 02:48:15;;;;;;;;;;;;;;;22.72;51.58;97644.19;4219113;28;5700;-61
2023/09/30 02:50:18;;;;;;;;;;;;;;;22.74;51.73;97643.94;4225419;28;5806;-61
2023/09/30 02:52:21;;;;;;;;;;;;;;;22.73;51.80;97628.84;4227242;28;6400;-61
2023/09/30 02:54:24;;;;;;;;;;;;;;;22.74;51.75;97627.75;4227572;28;5274;-61
2023/09/30 02:56:30;;;;;;;;;;;;;;;22.75;51.46;97626.69;4217131;28;5609;-60
2023/09/30 02:58:33;;;;;;;;;;;;;;;22.74;51.80;97630.47;4225614;28;5612;-61
2023/09/30 03:00:38;;;;;;;;;;;;;;;22.73;51.75;97637.72;4218762;28;5694;-61
2023/09/30 03:02:41;;;;;;;;;;;;;;;22.74;51.82;97633.16;4216964;28;5605;-61
2023/09/30 03:04:44;;;;;;;;;;;;;;;22.74;51.53;97633.16;4216582;28;5863;-61
2023/09/30 03:06:48;;;;;;;;;;;;;;;22.73;51.83;97635.03;4218627;28;7035;-61
2023/09/30 03:08:51;;;;;;;;;;;;;;;22.73;51.83;97629.66;4217418;28;5770;-61
2023/09/30 03:10:54;;;;;;;;;;;;;;;22.73;51.49;97631.53;4219484;28;5628;-61
2023/09/30 03:13:01;;;;;;;;;;;;;;;22.72;51.74;97632.59;4227056;28;5589;-61
2023/09/30 03:15:04;;;;;;;;;;;;;;;22.70;51.69;97634.72;4230130;28;5684;-61
2023/09/30 03:17:11;;;;;;;;;;;;;;;22.69;51.81;97633.09;4223940;28;5615;-61
2023/09/30 03:19:16;;;;;;;;;;;;;;;22.67;51.70;97633.34;4222825;28;5725;-61
2023/09/30 03:21:19;;;;;;;;;;;;;;;22.62;51.71;97635.97;4229587;28;5763;-61
2023/09/30 03:23:26;;;;;;;;;;;;;;;22.59;51.68;97633.78;4215453;28;5608;-61
2023/09/30 03:25:30;;;;;;;;;;;;;;;22.60;51.41;97625.44;4218412;28;5735;-61
2023/09/30 03:27:33;;;;;;;;;;;;;;;22.61;51.01;97627.06;4216441;28;5616;-61
2023/09/30 03:29:37;;;;;;;;;;;;;;;22.59;51.00;97629.22;4215760;28;5605;-61
2023/09/30 03:31:40;;;;;;;;;;;;;;;22.53;50.84;97630.19;4226646;28;6486;-61
2023/09/30 03:33:46;;;;;;;;;;;;;;;22.47;50.74;97636.59;4219633;28;5694;-61
2023/09/30 03:35:49;;;;;;;;;;;;;;;22.44;50.92;97636.28;4202397;28;5634;-61
2023/09/30 03:37:52;;;;;;;;;;;;;;;22.41;51.12;97634.88;4217861;28;5675;-61
2023/09/30 03:39:55;;;;;;;;;;;;;;;22.40;50.70;97630.56;4217920;28;5608;-61
2023/09/30 03:41:59;;;;;;;;;;;;;;;22.39;50.39;97628.94;4226791;28;5597;-61
2023/09/30 03:44:02;;;;;;;;;;;;;;;22.40;50.38;97632.44;4228646;28;5613;-60
2023/09/30 03:46:05;;;;;;;;;;;;;;;22.40;50.66;97635.94;4226960;28;5694;-60
2023/09/30 03:48:09;;;;;;;;;;;;;;;22.40;50.59;97630.56;4223456;28;5731;-61
2023/09/30 03:50:14;;;;;;;;;;;;;;;22.40;50.03;97630.56;4225557;28;5751;-62
2023/09/30 03:52:18;;;;;;;;;;;;;;;22.36;50.17;97622.16;4218033;28;5616;-61
2023/09/30 03:54:21;;;;;;;;;;;;;;;22.28;49.56;97622.56;4218238;28;5787;-62
2023/09/30 03:56:25;;;;;;;;;;;;;;;22.27;50.20;97636.28;4219048;28;5632;-61
2023/09/30 03:58:28;;;;;;;;;;;;;;;22.28;49.79;97637.94;4226320;28;5720;-61
2023/09/30 04:00:30;;;;;;;;;;;;;;;22.22;49.59;97641.63;4233061;28;5657;-61
2023/09/30 04:02:33;;;;;;;;;;;;;;;22.19;49.84;97647.47;4227472;28;7390;-61
2023/09/30 04:04:36;;;;;;;;;;;;;;;22.22;49.91;97644.31;4218120;28;5628;-62
2023/09/30 04:06:41;;;;;;;;;;;;;;;22.24;49.37;97636.81;4226412;28;5699;-61
2023/09/30 04:08:44;;;;;;;;;;;;;;;22.27;49.83;97639.81;4217816;28;5806;-61
2023/09/30 04:10:45;;;;;;;;;;;;;;;22.30;49.83;97635.78;4210020;28;5600;-61
2023/09/30 04:12:49;;;;;;;;;;;;;;;22.31;49.59;97630.19;4216185;28;5628;-61
2023/09/30 04:14:51;;;;;;;;;;;;;;;22.35;49.34;97633.19;4218025;28;5521;-61
2023/09/30 04:16:55;;;;;;;;;;;;;;;22.36;49.52;97624.84;4216695;28;5826;-62
2023/09/30 04:18:57;;;;;;;;;;;;;;;22.37;49.51;97622.97;4227077;28;5536;-61
2023/09/30 04:21:01;;;;;;;;;;;;;;;22.38;49.46;97617.34;4232041;28;5589;-61
2023/09/30 04:23:06;;;;;;;;;;;;;;;22.39;49.40;97623.53;4225581;28;6347;-61
2023/09/30 04:25:10;;;;;;;;;;;;;;;22.38;49.34;97620.03;4226543;28;5884;-61
2023/09/30 04:27:13;;;;;;;;;;;;;;;22.38;49.12;97632.69;4217284;28;5612;-62
2023/09/30 04:29:16;;;;;;;;;;;;;;;22.40;49.31;97638.63;4230691;28;5589;-61
2023/09/30 04:31:19;;;;;;;;;;;;;;;22.42;49.53;97633.00;4229709;28;5625;-62
2023/09/30 04:33:25;;;;;;;;;;;;;;;22.41;49.16;97632.19;4225871;28;5609;-61
2023/09/30 04:35:30;;;;;;;;;;;;;;;22.44;49.47;97628.19;4218671;28;6383;-61
2023/09/30 04:37:32;;;;;;;;;;;;;;;22.40;49.37;97622.47;4213568;28;6369;-61
2023/09/30 04:39:36;;;;;;;;;;;;;;;22.40;49.42;97625.16;4223184;28;5724;-61
2023/09/30 04:41:41;;;;;;;;;;;;;;;22.42;49.05;97633.81;4225026;28;5629;-61
2023/09/30 04:43:44;;;;;;;;;;;;;;;22.44;49.15;97642.50;4223943;28;5041;-62
2023/09/30 04:45:49;;;;;;;;;;;;;;;22.46;49.05;97639.53;4217287;28;5813;-61
2023/09/30 04:47:52;;;;;;;;;;;;;;;22.47;49.33;97628.50;4217339;28;5615;-62
2023/09/30 04:49:56;;;;;;;;;;;;;;;22.48;48.97;97642.78;4216067;28;6310;-62
2023/09/30 04:51:59;;;;;;;;;;;;;;;22.48;49.20;97646.31;4221052;28;5758;-61
2023/09/30 04:54:03;;;;;;;;;;;;;;;22.49;48.97;97647.13;4225625;28;5703;-61
2023/09/30 04:56:07;;;;;;;;;;;;;;;22.50;48.88;97651.44;4217847;28;5612;-61
2023/09/30 04:58:09;;;;;;;;;;;;;;;22.49;49.02;97649.81;4217456;28;5185;-62
2023/09/30 05:00:14;;;;;;;;;;;;;;;22.44;49.07;97657.84;4221345;28;5652;-61
2023/09/30 05:02:17;;;;;;;;;;;;;;;22.40;49.07;97660.19;4221369;28;5711;-61
2023/09/30 05:04:20;;;;;;;;;;;;;;;22.42;48.79;97666.13;4217454;28;5613;-62
2023/09/30 05:06:23;;;;;;;;;;;;;;;22.43;48.88;97662.41;4225317;28;5119;-62
2023/09/30 05:08:26;;;;;;;;;;;;;;;22.44;48.78;97674.00;4216048;28;5616;-62
2023/09/30 05:10:29;;;;;;;;;;;;;;;22.44;48.61;97674.00;4231477;28;5593;-62
2023/09/30 05:12:32;;;;;;;;;;;;;;;22.43;48.55;97678.56;4218929;28;5661;-61
2023/09/30 05:14:36;;;;;;;;;;;;;;;22.39;48.55;97680.13;4217447;28;6450;-61
2023/09/30 05:16:39;;;;;;;;;;;;;;;22.33;48.31;97681.13;4217452;28;5681;-61
2023/09/30 05:18:42;;;;;;;;;;;;;;;22.27;47.88;97679.38;4225243;28;5643;-61
2023/09/30 05:20:46;;;;;;;;;;;;;;;22.22;47.55;97682.84;4217092;28;5669;-61
2023/09/30 05:22:50;;;;;;;;;;;;;;;22.18;47.53;97680.88;4225646;28;5654;-61
2023/09/30 05:24:53;;;;;;;;;;;;;;;22.18;47.31;97681.69;4218141;28;5657;-61
2023/09/30 05:26:56;;;;;;;;;;;;;;;22.19;47.38;97682.50;4225492;28;5797;-61
2023/09/30 05:29:00;;;;;;;;;;;;;;;22.21;46.91;97691.16;4225761;28;5973;-61
2023/09/30 05:31:03;;;;;;;;;;;;;;;22.19;47.26;97688.69;4234494;28;5741;-61
2023/09/30 05:33:05;;;;;;;;;;;;;;;22.20;47.07;97689.50;4231171;28;5669;-62
2023/09/30 05:35:12;;;;;;;;;;;;;;;22.19;46.63;97686.00;4217314;28;5764;-61
2023/09/30 05:37:15;;;;;;;;;;;;;;;22.21;46.69;97685.78;4217415;28;5676;-62
2023/09/30 05:39:19;;;;;;;;;;;;;;;22.18;46.84;97689.75;4220447;28;5792;-61
2023/09/30 05:41:22;;;;;;;;;;;;;;;22.14;46.65;97691.31;4209440;28;5872;-62
2023/09/30 05:43:27;;;;;;;;;;;;;;;22.13;46.58;97689.69;4217200;28;5827;-61
2023/09/30 05:45:34;;;;;;;;;;;;;;;22.10;46.55;97697.44;4211656;28;5677;-62
2023/09/30 05:47:37;;;;;;;;;;;;;;;22.08;46.23;97686.91;4224160;28;5643;-62
2023/09/30 05:49:40;;;;;;;;;;;;;;;22.11;46.18;97681.03;4217199;28;6489;-62
2023/09/30 05:51:42;;;;;;;;;;;;;;;22.14;46.45;97688.63;4216889;28;5848;-63
2023/09/30 05:53:45;;;;;;;;;;;;;;;22.16;46.49;97693.75;4208499;28;5736;-62
2023/09/30 05:55:48;;;;;;;;;;;;;;;22.17;46.45;97684.63;4225230;28;5793;-61
2023/09/30 05:57:52;;;;;;;;;;;;;;;22.18;45.89;97691.63;4218060;28;5702;-61
2023/09/30 05:59:55;;;;;;;;;;;;;;;22.19;45.84;97691.38;4207134;28;5756;-61
2023/09/30 06:01:59;;;;;;;;;;;;;;;22.18;45.88;97686.25;4221174;28;5671;-62
2023/09/30 06:04:03;;;;;;;;;;;;;;;22.18;45.79;97691.63;4219201;28;5857;-62
2023/09/30 06:06:12;;;;;;;;;;;;;;;22.17;45.58;97688.13;4212794;28;5756;-62
2023/09/30 06:08:15;;;;;;;;;;;;;;;22.18;45.89;97687.06;4219428;28;5730;-62
2023/09/30 06:10:18;;;;;;;;;;;;;;;22.19;45.31;97699.47;4231913;28;5667;-62
2023/09/30 06:12:21;;;;;;;;;;;;;;;22.15;45.17;97692.94;4219744;28;5785;-63
2023/09/30 06:14:27;;;;;;;;;;;;;;;22.12;45.28;97695.31;4218100;28;5660;-61
2023/09/30 06:16:31;;;;;;;;;;;;;;;22.11;44.98;97694.50;4217184;28;5782;-62
2023/09/30 06:18:35;;;;;;;;;;;;;;;22.14;45.32;97693.19;4226199;28;5747;-61
2023/09/30 06:20:39;;;;;;;;;;;;;;;22.16;45.15;97694.56;4223012;28;5700;-61
2023/09/30 06:22:41;;;;;;;;;;;;;;;22.14;45.11;97691.31;4218439;28;6836;-62
2023/09/30 06:24:44;;;;;;;;;;;;;;;22.13;45.00;97695.06;4210009;28;5752;-61
2023/09/30 06:26:48;;;;;;;;;;;;;;;22.15;45.03;97692.94;4210638;28;5759;-61
2023/09/30 06:28:54;;;;;;;;;;;;;;;22.20;45.14;97700.28;4226883;28;5807;-61
2023/09/30 06:30:57;;;;;;;;;;;;;;;22.22;44.87;97703.56;4224971;28;5815;-62
2023/09/30 06:33:00;;;;;;;;;;;;;;;22.21;45.20;97705.44;4219838;28;5664;-61
2023/09/30 06:35:10;;;;;;;;;;;;;;;22.25;45.38;97711.97;4219114;28;5996;-62
2023/09/30 06:37:12;;;;;;;;;;;;;;;22.26;45.34;97715.47;4218962;28;5849;-61
2023/09/30 06:39:16;;;;;;;;;;;;;;;22.27;45.30;97719.78;4222408;28;5654;-62
2023/09/30 06:41:19;;;;;;;;;;;;;;;22.30;45.18;97722.81;4226499;28;5646;-62
2023/09/30 06:43:22;;;;;;;;;;;;;;;22.35;45.34;97722.09;4222057;28;5680;-61
2023/09/30 06:45:24;;;;;;;;;;;;;;;22.38;45.66;97729.66;4223713;27;5761;-62
2023/09/30 06:47:27;;;;;;;;;;;;;;;22.41;45.52;97737.25;4223010;28;6613;-61
2023/09/30 06:49:30;;;;;;;;;;;;;;;22.44;45.42;97747.56;4224807;28;6463;-61
2023/09/30 06:51:34;;;;;;;;;;;;;;;22.46;45.58;97748.13;4226680;28;5802;-61
2023/09/30 06:53:37;;;;;;;;;;;;;;;22.48;45.91;97753.25;4219643;28;5731;-61
2023/09/30 06:55:40;;;;;;;;;;;;;;;22.50;46.07;97754.63;4217951;28;5657;-61
2023/09/30 06:57:43;;;;;;;;;;;;;;;22.53;46.16;97758.72;4217742;28;5707;-62
2023/09/30 06:59:46;;;;;;;;;;;;;;;22.53;45.89;97753.31;4225034;28;5643;-61
2023/09/30 07:01:49;;;;;;;;;;;;;;;22.54;45.95;97761.19;4234820;28;5655;-62
2023/09/30 07:03:52;;;;;;;;;;;;;;;22.56;46.33;97761.75;4223161;28;6580;-61
2023/09/30 07:05:56;;;;;;;;;;;;;;;22.56;46.10;97764.44;4217715;28;5682;-61
2023/09/30 07:08:00;;;;;;;;;;;;;;;22.57;46.54;97757.19;4218055;28;6490;-62
2023/09/30 07:10:04;;;;;;;;;;;;;;;22.61;46.52;97761.00;4218148;28;5748;-61
2023/09/30 07:12:07;;;;;;;;;;;;;;;22.63;46.26;97764.25;4220561;28;5643;-62
2023/09/30 07:14:10;;;;;;;;;;;;;;;22.65;46.82;97762.97;4222409;28;5763;-61
2023/09/30 07:16:12;;;;;;;;;;;;;;;22.68;46.66;97761.66;4221398;28;5786;-62
2023/09/30 07:18:16;;;;;;;;;;;;;;;22.70;46.61;97759.53;4221025;28;6210;-62
2023/09/30 07:20:20;;;;;;;;;;;;;;;22.72;46.94;97767.38;4217300;28;5855;-63
2023/09/30 07:22:23;;;;;;;;;;;;;;;22.73;46.94;97761.72;4213026;28;6711;-62
2023/09/30 07:24:42;;;;;;;;;;;;;;;22.74;46.76;97766.03;4217217;28;5652;-65
2023/09/30 07:26:45;;;;;;;;;;;;;;;22.74;46.94;97770.63;4209062;28;5073;-66
2023/09/30 07:28:48;;;;;;;;;;;;;;;22.76;47.03;97765.78;4207697;28;5776;-65
2023/09/30 07:30:51;;;;;;;;;;;;;;;22.77;46.76;97770.97;4221419;28;5643;-66
2023/09/30 07:32:54;;;;;;;;;;;;;;;22.77;46.74;97776.34;4213586;28;5897;-66
2023/09/30 07:34:58;;;;;;;;;;;;;;;22.77;46.90;97770.97;4218225;28;5871;-67
2023/09/30 07:37:01;;;;;;;;;;;;;;;22.77;47.10;97772.84;4213360;28;5780;-62
2023/09/30 07:39:05;;;;;;;;;;;;;;;22.78;47.36;97771.78;4224679;27;5867;-62
2023/09/30 07:41:10;;;;;;;;;;;;;;;22.79;46.92;97766.13;4220052;28;5650;-62
2023/09/30 07:43:13;;;;;;;;;;;;;;;22.81;47.28;97773.97;4227567;28;5847;-67
2023/09/30 07:45:16;;;;;;;;;;;;;;;22.81;46.89;97772.09;4209295;28;5774;-63
2023/09/30 07:47:19;;;;;;;;;;;;;;;22.80;47.44;97765.06;4208983;28;5863;-63
2023/09/30 07:49:23;;;;;;;;;;;;;;;22.81;47.35;97773.97;4209277;28;5821;-62
2023/09/30 07:51:26;;;;;;;;;;;;;;;22.80;47.38;97772.34;4211726;28;5843;-62
2023/09/30 07:53:29;;;;;;;;;;;;;;;22.81;47.51;97771.28;4218040;28;6657;-63
2023/09/30 07:55:32;;;;;;;;;;;;;;;22.81;47.51;97768.59;4218374;28;5762;-63
2023/09/30 07:57:38;;;;;;;;;;;;;;;22.82;47.66;97772.91;4226487;28;5676;-63
2023/09/30 07:59:40;;;;;;;;;;;;;;;22.84;47.71;97768.09;4234758;28;5745;-63
2023/09/30 08:01:43;;;;;;;;;;;;;;;22.87;48.07;97770.31;4235251;28;5754;-63
2023/09/30 08:03:46;;;;;;;;;;;;;;;22.89;47.60;97770.91;4218309;28;5655;-63
2023/09/30 08:05:50;;;;;;;;;;;;;;;22.92;47.64;97773.09;4226550;28;5829;-63
2023/09/30 08:07:54;;;;;;;;;;;;;;;22.92;47.72;97781.19;4226407;28;5859;-62
2023/09/30 08:09:56;;;;;;;;;;;;;;;22.95;48.03;97783.38;4226318;28;5658;-63
2023/09/30 08:11:59;;;;;;;;;;;;;;;22.96;47.61;97785.00;4228687;28;5638;-63
2023/09/30 08:14:06;;;;;;;;;;;;;;;22.98;47.85;97782.06;4226600;28;5662;-63
2023/09/30 08:16:09;;;;;;;;;;;;;;;23.02;48.09;97784.00;4223072;28;5676;-63
2023/09/30 08:18:12;;;;;;;;;;;;;;;23.04;48.03;97781.06;4230390;28;5638;-63
2023/09/30 08:20:15;;;;;;;;;;;;;;;23.04;48.08;97771.09;4226271;28;5718;-63
2023/09/30 08:22:18;;;;;;;;;;;;;;;23.07;48.39;97778.69;4221179;28;5676;-63
2023/09/30 08:24:21;;;;;;;;;;;;;;;23.08;47.93;97772.22;4217900;28;5677;-63
2023/09/30 08:26:24;;;;;;;;;;;;;;;23.11;47.92;97779.84;4226226;28;5681;-63
2023/09/30 08:28:27;;;;;;;;;;;;;;;23.12;47.95;97777.94;4223771;28;6611;-63
2023/09/30 08:30:31;;;;;;;;;;;;;;;23.12;48.21;97776.06;4228368;28;5669;-63
2023/09/30 08:32:35;;;;;;;;;;;;;;;23.13;48.25;97776.88;4217960;28;5835;-63
2023/09/30 08:34:39;;;;;;;;;;;;;;;23.16;48.57;97770.97;4225299;28;5670;-63
2023/09/30 08:36:42;;;;;;;;;;;;;;;23.16;48.43;97774.50;4225797;28;5658;-62
2023/09/30 08:38:45;;;;;;;;;;;;;;;23.17;48.17;97770.72;4200782;28;5816;-63
2023/09/30 08:40:52;;;;;;;;;;;;;;;23.18;48.47;97766.16;4234739;28;5658;-63
2023/09/30 08:42:55;;;;;;;;;;;;;;;23.19;48.26;97773.97;4234589;28;5651;-63
2023/09/30 08:44:57;;;;;;;;;;;;;;;23.21;48.45;97765.63;4234764;28;5647;-63
2023/09/30 08:47:03;;;;;;;;;;;;;;;23.21;48.40;97766.44;4232158;28;5651;-64
2023/09/30 08:49:06;;;;;;;;;;;;;;;23.20;48.23;97754.03;4226048;28;5677;-63
2023/09/30 08:51:10;;;;;;;;;;;;;;;23.20;48.83;97754.03;4226194;28;5684;-63
2023/09/30 08:53:17;;;;;;;;;;;;;;;23.18;48.65;97756.16;4225999;28;5741;-62
2023/09/30 08:55:20;;;;;;;;;;;;;;;23.18;48.46;97758.88;4222650;28;6484;-63
2023/09/30 08:57:22;;;;;;;;;;;;;;;23.16;48.26;97752.91;4234323;28;6450;-62
2023/09/30 08:59:26;;;;;;;;;;;;;;;23.16;48.24;97741.31;4228805;28;5661;-65
2023/09/30 09:01:30;;;;;;;;;;;;;;;23.15;48.45;97751.28;4217683;28;5886;-63
2023/09/30 09:03:36;;;;;;;;;;;;;;;23.16;48.56;97744.00;4225834;28;5784;-63
2023/09/30 09:05:39;;;;;;;;;;;;;;;23.15;48.31;97748.59;4225736;28;5697;-64
2023/09/30 09:07:43;;;;;;;;;;;;;;;23.15;48.34;97751.28;4225843;28;5735;-64
2023/09/30 09:10:04;;;;;;;;;;;;;;;23.14;48.83;97755.06;4225601;28;5826;-63
2023/09/30 09:12:09;;;;;;;;;;;;;;;23.16;48.47;97757.50;4217323;28;5665;-63
2023/09/30 09:14:11;;;;;;;;;;;;;;;23.17;48.54;97754.53;4229909;28;5734;-63
2023/09/30 09:16:14;;;;;;;;;;;;;;;23.20;48.58;97743.25;4225750;28;5643;-64
2023/09/30 09:18:33;;;;;;;;;;;;;;;23.22;48.20;97745.72;4225757;28;5650;-63
2023/09/30 09:20:38;;;;;;;;;;;;;;;23.24;48.32;97744.41;4226816;28;5827;-63
2023/09/30 09:22:41;;;;;;;;;;;;;;;23.26;48.59;97738.75;4225715;28;5657;-64
2023/09/30 09:24:46;;;;;;;;;;;;;;;23.25;48.57;97737.13;4234062;28;5638;-63
2023/09/30 09:26:49;;;;;;;;;;;;;;;23.26;48.49;97732.53;4225039;28;5101;-62
2023/09/30 09:28:58;;;;;;;;;;;;;;;23.26;48.26;97729.84;4218337;28;5756;-63
2023/09/30 09:31:01;;;;;;;;;;;;;;;23.26;48.81;97725.25;4223429;28;5653;-64
2023/09/30 09:33:07;;;;;;;;;;;;;;;23.26;48.77;97732.53;4228523;28;5658;-64
2023/09/30 09:35:10;;;;;;;;;;;;;;;23.28;48.63;97727.69;4222121;28;6375;-63
2023/09/30 09:37:19;;;;;;;;;;;;;;;23.27;48.53;97726.88;4229561;28;6554;-63
2023/09/30 09:39:30;;;;;;;;;;;;;;;23.28;48.84;97733.09;4225494;28;5674;-64
2023/09/30 09:41:33;;;;;;;;;;;;;;;23.29;48.95;97732.03;4227351;28;5909;-64
2023/09/30 09:43:37;;;;;;;;;;;;;;;23.28;49.05;97733.09;4225384;28;6367;-65
2023/09/30 09:45:41;;;;;;;;;;;;;;;23.28;48.93;97733.09;4225219;28;5652;-65
2023/09/30 09:47:43;;;;;;;;;;;;;;;23.28;48.85;97727.69;4236550;28;5687;-64
2023/09/30 09:49:46;;;;;;;;;;;;;;;23.28;48.44;97722.31;4220686;28;5630;-64
2023/09/30 09:51:50;;;;;;;;;;;;;;;23.28;48.77;97730.41;4220569;28;5677;-63
2023/09/30 09:53:55;;;;;;;;;;;;;;;23.29;48.91;97730.13;4229977;28;5805;-63
2023/09/30 09:56:00;;;;;;;;;;;;;;;;;;4226887;28;5117;-63
2023/09/30 09:58:04;;;;;;;;;;;;;;;23.33;48.59;97730.44;4222659;28;5973;-63
2023/09/30 10:00:13;;;;;;;;;;;;;;;23.33;49.10;97725.03;4237413;28;5789;-64
2023/09/30 10:02:17;;;;;;;;;;;;;;;23.34;48.93;97727.53;4228750;28;5658;-64
2023/09/30 10:04:20;;;;;;;;;;;;;;;23.35;48.73;97728.34;4232229;28;5668;-64
2023/09/30 10:06:25;;;;;;;;;;;;;;;23.36;48.62;97724.56;4234289;28;5745;-62
2023/09/30 10:08:33;;;;;;;;;;;;;;;23.36;48.61;97721.88;4237135;28;5738;-63
2023/09/30 10:10:37;;;;;;;;;;;;;;;23.37;48.94;97718.09;4230007;28;6359;-63
2023/09/30 10:12:40;;;;;;;;;;;;;;;23.38;48.93;97725.94;4236458;28;5654;-64
2023/09/30 10:14:44;;;;;;;;;;;;;;;23.38;49.21;97725.94;4228747;28;5767;-63
2023/09/30 10:16:53;;;;;;;;;;;;;;;23.39;49.23;97724.06;4203668;28;5694;-64
2023/09/30 10:19:08;;;;;;;;;;;;;;;23.39;48.99;97724.88;4235487;28;5646;-63
2023/09/30 10:21:12;;;;;;;;;;;;;;;23.39;49.03;97724.06;4194950;28;5704;-64
2023/09/30 10:23:27;;;;;;;;;;;;;;;23.42;49.12;97728.94;4190811;28;5791;-64
2023/09/30 10:25:38;;;;;;;;;;;;;;;23.43;49.50;97722.47;4197036;28;5712;-64
2023/09/30 10:27:43;;;;;;;;;;;;;;;23.43;49.56;97719.78;4194499;28;5700;-63
2023/09/30 10:29:45;;;;;;;;;;;;;;;23.43;49.37;97717.06;4186786;28;5723;-64
2023/09/30 10:31:52;;;;;;;;;;;;;;;23.44;49.74;97714.16;4186515;28;7714;-64
2023/09/30 10:34:18;;;;;;;;;;;;;;;23.44;49.83;97706.06;4194817;28;5710;-63
2023/09/30 10:36:28;;;;;;;;;;;;;;;23.47;49.66;97718.22;4194658;28;5704;-64
2023/09/30 10:38:40;;;;;;;;;;;;;;;23.47;49.77;97712.81;4199751;28;5709;-64
2023/09/30 10:40:44;;;;;;;;;;;;;;;23.47;49.77;97707.41;4202990;28;5765;-64
2023/09/30 10:42:49;;;;;;;;;;;;;;;23.47;49.83;97705.53;4194294;28;5190;-63
2023/09/30 10:44:53;;;;;;;;;;;;;;;23.46;50.20;97700.41;4194647;28;5720;-64
2023/09/30 10:46:57;;;;;;;;;;;;;;;23.48;50.05;97692.84;4194263;28;8444;-65
2023/09/30 10:49:17;;;;;;;;;;;;;;;23.50;50.19;97698.81;4192484;28;6390;-63
2023/09/30 10:51:21;;;;;;;;;;;;;;;23.50;50.12;97690.72;4199345;28;5810;-63
2023/09/30 10:53:23;;;;;;;;;;;;;;;23.49;50.15;97684.50;4197289;28;5712;-64
2023/09/30 10:55:27;;;;;;;;;;;;;;;23.49;50.42;97686.38;4186322;28;5745;-64